createdAt,value
2022-09-26T00:00:35.773Z,7.60
2022-09-26T00:05:39.049Z,7.60
2022-09-26T00:10:40.860Z,7.50
2022-09-26T00:15:42.703Z,7.50
2022-09-26T00:20:44.499Z,7.70
2022-09-26T00:25:47.873Z,7.70
2022-09-26T00:30:49.679Z,7.80
2022-09-26T00:35:53.390Z,7.80
2022-09-26T00:40:55.684Z,7.70
2022-09-26T00:46:19.037Z,7.70
2022-09-26T00:51:21.126Z,7.70
2022-09-26T00:56:31.148Z,7.70
2022-09-26T01:01:33.282Z,7.70
2022-09-26T01:06:35.750Z,7.60
2022-09-26T01:11:40.525Z,7.70
2022-09-26T01:16:47.557Z,7.60
2022-09-26T01:22:24.516Z,7.60
2022-09-26T01:27:38.412Z,7.50
2022-09-26T01:32:49.164Z,7.40
2022-09-26T01:38:11.620Z,7.40
2022-09-26T01:43:26.981Z,7.50
2022-09-26T01:48:42.616Z,7.50
2022-09-26T01:53:57.821Z,7.50
2022-09-26T01:59:23.950Z,7.60
2022-09-26T02:04:34.136Z,7.60
2022-09-26T02:09:46.071Z,7.70
2022-09-26T02:14:49.756Z,7.80
2022-09-26T02:19:57.916Z,7.70
2022-09-26T02:25:00.602Z,7.70
2022-09-26T02:30:03.346Z,7.50
2022-09-26T02:35:24.814Z,7.50
2022-09-26T02:40:38.121Z,7.60
2022-09-26T02:45:47.444Z,7.60
2022-09-26T02:51:04.043Z,7.40
2022-09-26T02:56:48.113Z,7.50
2022-09-26T03:02:06.525Z,7.50
2022-09-26T03:07:14.761Z,7.60
2022-09-26T03:12:18.047Z,7.50
2022-09-26T03:17:21.620Z,7.70
2022-09-26T03:22:25.480Z,7.80
2022-09-26T03:27:27.996Z,7.80
2022-09-26T03:32:32.316Z,7.80
2022-09-26T03:37:37.194Z,7.90
2022-09-26T03:42:39.531Z,8.00
2022-09-26T03:47:42.063Z,8.20
2022-09-26T03:52:44.149Z,8.40
2022-09-26T03:57:46.045Z,8.50
2022-09-26T04:03:02.987Z,8.60
2022-09-26T04:08:14.129Z,8.70
2022-09-26T04:13:46.523Z,8.80
2022-09-26T04:18:40.455Z,9.00
2022-09-26T04:23:43.827Z,9.00
2022-09-26T04:28:46.663Z,8.70
2022-09-26T04:33:49.107Z,9.00
2022-09-26T04:38:52.022Z,9.20
2022-09-26T04:43:56.665Z,9.30
2022-09-26T04:49:00.617Z,9.20
2022-09-26T04:54:02.477Z,9.20
2022-09-26T04:59:08.359Z,9.10
2022-09-26T05:04:33.386Z,9.10
2022-09-26T05:09:36.265Z,9.30
2022-09-26T05:14:46.009Z,9.30
2022-09-26T05:19:48.512Z,9.30
2022-09-26T05:25:15.129Z,9.20
2022-09-26T05:30:17.220Z,9.10
2022-09-26T05:35:19.116Z,9.20
2022-09-26T05:40:39.726Z,9.20
2022-09-26T05:45:41.746Z,9.40
2022-09-26T05:50:44.906Z,9.70
2022-09-26T06:10:42.200Z,9.80
2022-09-26T06:16:06.455Z,10.20
2022-09-26T06:21:28.709Z,10.10
2022-09-26T06:26:57.224Z,10.20
2022-09-26T06:32:19.819Z,10.30
2022-09-26T06:38:08.531Z,10.50
2022-09-26T06:43:31.469Z,10.60
2022-09-26T06:49:13.525Z,10.70
2022-09-26T06:54:38.349Z,10.90
2022-09-26T07:00:01.528Z,11.00
2022-09-26T07:05:45.234Z,10.90
2022-09-26T07:11:31.087Z,11.00
2022-09-26T07:16:51.744Z,11.20
2022-09-26T07:22:37.013Z,11.30
2022-09-26T07:28:00.455Z,11.40
2022-09-26T07:33:33.935Z,11.60
2022-09-26T07:39:02.434Z,11.60
2022-09-26T07:50:17.152Z,11.60
2022-09-26T07:56:06.771Z,11.60
2022-09-26T08:01:49.365Z,11.80
2022-09-26T08:07:42.223Z,11.80
2022-09-26T08:13:11.393Z,11.90
2022-09-26T08:18:47.430Z,11.80
2022-09-26T08:24:09.937Z,11.90
2022-09-26T08:29:56.942Z,12.10
2022-09-26T08:35:19.234Z,12.20
2022-09-26T08:41:25.996Z,12.30
2022-09-26T08:47:44.568Z,12.20
2022-09-26T08:53:35.675Z,12.20
2022-09-26T08:58:59.896Z,12.30
2022-09-26T09:04:40.775Z,12.40
2022-09-26T09:10:07.537Z,12.30
2022-09-26T09:15:57.987Z,12.30
2022-09-26T09:21:53.479Z,12.10
2022-09-26T09:27:53.700Z,12.10
2022-09-26T09:33:42.392Z,12.20
2022-09-26T09:39:40.079Z,12.30
2022-09-26T09:45:47.718Z,12.30
2022-09-26T09:51:36.855Z,12.50
2022-09-26T09:57:37.234Z,12.70
2022-09-26T10:03:14.834Z,12.90
2022-09-26T10:08:40.992Z,13.10
2022-09-26T10:14:30.856Z,13.40
2022-09-26T10:20:37.971Z,13.70
2022-09-26T10:26:06.073Z,14.00
2022-09-26T10:31:42.367Z,14.10
2022-09-26T10:37:29.187Z,14.50
2022-09-26T10:43:28.813Z,14.80
2022-09-26T10:48:58.466Z,15.00
2022-09-26T10:54:47.011Z,14.60
2022-09-26T11:00:09.759Z,14.20
2022-09-26T11:05:54.841Z,14.50
2022-09-26T11:11:22.462Z,14.40
2022-09-26T11:16:55.858Z,14.20
2022-09-26T11:22:37.321Z,14.50
2022-09-26T11:28:14.219Z,14.90
2022-09-26T11:33:59.452Z,15.00
2022-09-26T11:40:03.762Z,15.00
2022-09-26T11:45:40.042Z,15.30
2022-09-26T11:51:34.871Z,15.60
2022-09-26T11:57:08.640Z,15.40
2022-09-26T12:02:56.052Z,16.00
2022-09-26T12:08:54.140Z,16.10
2022-09-26T12:14:16.281Z,16.20
2022-09-26T12:19:47.073Z,16.30
2022-09-26T12:25:30.461Z,15.90
2022-09-26T12:31:11.512Z,16.10
2022-09-26T12:37:09.846Z,16.30
2022-09-26T12:43:00.526Z,16.20
2022-09-26T12:48:41.274Z,15.90
2022-09-26T12:54:12.438Z,15.90
2022-09-26T13:00:09.986Z,16.00
2022-09-26T13:06:08.798Z,15.60
2022-09-26T13:11:59.968Z,15.70
2022-09-26T13:17:27.861Z,15.30
2022-09-26T13:22:57.858Z,15.60
2022-09-26T13:28:24.662Z,15.80
2022-09-26T13:33:57.239Z,15.80
2022-09-26T13:39:42.411Z,15.60
2022-09-26T13:45:44.209Z,15.60
2022-09-26T13:51:44.509Z,15.40
2022-09-26T13:57:32.580Z,15.50
2022-09-26T14:03:09.431Z,15.80
2022-09-26T14:08:52.816Z,16.00
2022-09-26T14:14:18.181Z,16.10
2022-09-26T14:19:49.681Z,15.50
2022-09-26T14:25:46.218Z,15.70
2022-09-26T14:31:25.603Z,15.60
2022-09-26T14:36:49.823Z,15.40
2022-09-26T14:42:19.513Z,15.70
2022-09-26T14:47:49.163Z,15.70
2022-09-26T14:53:21.388Z,15.70
2022-09-26T14:58:51.700Z,15.90
2022-09-26T15:04:20.390Z,15.80
2022-09-26T15:09:47.655Z,15.80
2022-09-26T15:15:21.856Z,15.60
2022-09-26T15:20:50.351Z,15.60
2022-09-26T15:26:16.491Z,15.60
2022-09-26T15:31:40.251Z,15.40
2022-09-26T15:37:14.652Z,15.40
2022-09-26T15:42:55.538Z,15.20
2022-09-26T15:48:21.196Z,15.00
2022-09-26T15:53:49.851Z,14.90
2022-09-26T15:59:19.428Z,14.50
2022-09-26T16:04:41.533Z,14.20
2022-09-26T16:10:31.736Z,14.40
2022-09-26T16:16:08.891Z,14.30
2022-09-26T16:21:34.138Z,14.30
2022-09-26T16:26:57.692Z,14.00
2022-09-26T16:32:21.887Z,13.70
2022-09-26T16:37:44.121Z,13.40
2022-09-26T16:43:28.022Z,13.50
2022-09-26T16:48:50.072Z,13.50
2022-09-26T16:54:18.924Z,13.50
2022-09-26T16:59:42.130Z,13.40
2022-09-26T17:05:07.032Z,13.10
2022-09-26T17:10:30.070Z,12.80
2022-09-26T17:15:57.550Z,12.60
2022-09-26T17:21:19.833Z,12.60
2022-09-26T17:26:53.281Z,12.80
2022-09-26T17:32:28.837Z,12.70
2022-09-26T17:37:52.465Z,12.60
2022-09-26T17:43:14.817Z,12.50
2022-09-26T17:48:37.201Z,12.30
2022-09-26T17:54:01.571Z,12.20
2022-09-26T17:59:26.680Z,11.90
2022-09-26T18:04:50.835Z,11.70
2022-09-26T18:10:21.804Z,11.40
2022-09-26T18:15:45.598Z,11.40
2022-09-26T18:21:16.194Z,11.20
2022-09-26T18:26:47.232Z,11.10
2022-09-26T18:32:23.362Z,10.60
2022-09-26T18:37:45.959Z,10.50
2022-09-26T18:43:18.762Z,10.60
2022-09-26T18:48:42.972Z,10.50
2022-09-26T18:54:13.880Z,10.30
2022-09-26T18:59:36.073Z,10.10
2022-09-26T19:04:58.841Z,9.90
2022-09-26T19:10:22.851Z,9.80
2022-09-26T19:15:45.020Z,9.80
2022-09-26T19:21:30.468Z,9.60
2022-09-26T19:26:58.958Z,9.50
2022-09-26T19:32:32.429Z,9.20
2022-09-26T19:37:55.047Z,9.20
2022-09-26T19:43:18.581Z,9.10
2022-09-26T19:48:42.525Z,9.10
2022-09-26T19:54:06.410Z,9.00
2022-09-26T19:59:28.753Z,8.90
2022-09-26T20:04:51.239Z,8.80
2022-09-26T20:10:25.346Z,8.80
2022-09-26T20:15:48.463Z,8.70
2022-09-26T20:21:13.243Z,8.70
2022-09-26T20:26:35.574Z,8.60
2022-09-26T20:31:57.721Z,8.60
2022-09-26T20:37:23.672Z,8.60
2022-09-26T20:42:31.468Z,8.60
2022-09-26T20:47:35.511Z,8.60
2022-09-26T20:52:37.475Z,8.70
2022-09-26T20:57:40.242Z,8.70
2022-09-26T21:02:42.603Z,8.60
2022-09-26T21:07:44.759Z,8.60
2022-09-26T21:12:46.533Z,8.60
2022-09-26T21:17:49.992Z,8.60
2022-09-26T21:22:52.693Z,8.50
2022-09-26T21:28:11.355Z,8.30
2022-09-26T21:33:13.808Z,8.40
2022-09-26T21:38:17.410Z,8.30
2022-09-26T21:43:22.673Z,8.30
2022-09-26T21:48:24.531Z,8.20
2022-09-26T21:53:36.944Z,8.20
2022-09-26T21:58:41.235Z,7.90
2022-09-26T22:03:43.091Z,8.10
2022-09-26T22:08:44.918Z,8.10
2022-09-26T22:13:46.732Z,8.10
2022-09-26T22:18:48.507Z,8.20
2022-09-26T22:23:51.650Z,7.80
2022-09-26T22:28:53.516Z,7.70
2022-09-26T22:33:59.660Z,7.70
2022-09-26T22:39:01.622Z,7.90
2022-09-26T22:44:04.372Z,7.80
2022-09-26T22:49:06.320Z,7.60
2022-09-26T22:54:08.137Z,7.50
2022-09-26T22:59:10.630Z,7.50
2022-09-26T23:04:12.499Z,7.50
2022-09-26T23:09:14.336Z,7.50
2022-09-26T23:14:16.183Z,7.40
2022-09-26T23:19:18.022Z,7.10
2022-09-26T23:24:20.133Z,6.90
2022-09-26T23:29:21.976Z,6.80
2022-09-26T23:34:23.834Z,6.90
2022-09-26T23:39:25.640Z,7.00
2022-09-26T23:44:27.656Z,7.10
2022-09-26T23:49:29.711Z,6.90
2022-09-26T23:54:31.542Z,6.90
2022-09-26T23:59:33.329Z,6.90
